createdAt,value
2019-05-21T00:01:25.837Z,15.20
2019-05-21T00:03:56.010Z,15.20
2019-05-21T00:06:26.174Z,15.20
2019-05-21T00:08:56.413Z,15.10
2019-05-21T00:11:26.480Z,15.10
2019-05-21T00:13:56.542Z,15.00
2019-05-21T00:16:26.645Z,15.00
2019-05-21T00:18:56.865Z,15.00
2019-05-21T00:21:26.974Z,15.00
2019-05-21T00:23:57.212Z,15.00
2019-05-21T00:26:27.369Z,15.10
2019-05-21T00:29:34.690Z,15.10
2019-05-21T00:32:40.837Z,15.10
2019-05-21T00:35:50.204Z,15.10
2019-05-21T00:38:56.523Z,15.20
2019-05-21T00:42:00.134Z,15.20
2019-05-21T00:44:35.013Z,15.20
2019-05-21T00:47:06.838Z,15.20
2019-05-21T00:49:37.031Z,15.20
2019-05-21T00:52:08.951Z,15.20
2019-05-21T00:54:39.699Z,15.20
2019-05-21T00:57:10.005Z,15.20
2019-05-21T00:59:40.238Z,15.20
2019-05-21T01:02:10.479Z,15.10
2019-05-21T01:04:40.645Z,15.20
2019-05-21T01:07:10.969Z,15.20
2019-05-21T01:09:41.258Z,15.20
2019-05-21T01:12:11.314Z,15.10
2019-05-21T01:14:41.529Z,15.10
2019-05-21T01:17:11.830Z,15.10
2019-05-21T01:19:42.115Z,15.10
2019-05-21T01:22:12.312Z,15.10
2019-05-21T01:24:42.503Z,15.10
2019-05-21T01:27:13.755Z,15.10
2019-05-21T01:29:44.080Z,15.10
2019-05-21T01:32:14.328Z,15.10
2019-05-21T01:34:44.648Z,15.10
2019-05-21T01:37:14.817Z,15.10
2019-05-21T01:39:44.980Z,15.10
2019-05-21T01:42:15.106Z,15.10
2019-05-21T01:44:45.254Z,15.10
2019-05-21T01:47:15.384Z,15.10
2019-05-21T01:49:45.564Z,15.00
2019-05-21T01:52:15.670Z,15.00
2019-05-21T01:54:45.902Z,15.00
2019-05-21T01:57:16.130Z,15.10
2019-05-21T01:59:46.193Z,15.00
2019-05-21T02:02:16.451Z,15.00
2019-05-21T02:04:46.521Z,15.00
2019-05-21T02:07:16.739Z,15.10
2019-05-21T02:09:58.996Z,15.10
2019-05-21T02:12:29.223Z,15.10
2019-05-21T02:14:59.530Z,15.10
2019-05-21T02:17:29.709Z,15.10
2019-05-21T02:19:59.780Z,15.00
2019-05-21T02:22:29.921Z,15.00
2019-05-21T02:25:00.010Z,15.00
2019-05-21T02:27:30.159Z,15.00
2019-05-21T02:30:00.229Z,15.10
2019-05-21T02:32:30.475Z,15.10
2019-05-21T02:35:00.579Z,15.10
2019-05-21T02:37:30.827Z,15.10
2019-05-21T02:40:00.882Z,15.10
2019-05-21T02:42:31.100Z,15.10
2019-05-21T02:45:01.255Z,15.00
2019-05-21T02:47:31.451Z,15.00
2019-05-21T02:50:01.629Z,15.00
2019-05-21T02:52:31.850Z,15.10
2019-05-21T02:55:02.231Z,15.00
2019-05-21T02:57:40.265Z,15.10
2019-05-21T03:00:28.019Z,15.00
2019-05-21T03:02:58.276Z,15.00
2019-05-21T03:05:28.735Z,15.00
2019-05-21T03:07:58.933Z,15.00
2019-05-21T03:10:29.055Z,15.00
2019-05-21T03:12:59.166Z,15.10
2019-05-21T03:15:29.361Z,15.10
2019-05-21T03:17:59.551Z,15.10
2019-05-21T03:20:29.887Z,15.20
2019-05-21T03:23:01.129Z,15.10
2019-05-21T03:25:31.318Z,15.10
2019-05-21T03:28:01.487Z,15.20
2019-05-21T03:30:31.939Z,15.20
2019-05-21T03:33:02.149Z,15.20
2019-05-21T03:35:32.395Z,15.20
2019-05-21T03:38:02.747Z,15.20
2019-05-21T03:40:34.081Z,15.20
2019-05-21T03:43:05.332Z,15.20
2019-05-21T03:45:36.911Z,15.20
2019-05-21T03:48:08.060Z,15.20
2019-05-21T03:50:38.299Z,15.20
2019-05-21T03:53:08.428Z,15.20
2019-05-21T03:55:38.548Z,15.30
2019-05-21T03:58:08.768Z,15.30
2019-05-21T04:00:38.962Z,15.30
2019-05-21T04:03:09.317Z,15.30
2019-05-21T04:05:39.480Z,15.30
2019-05-21T04:08:09.712Z,15.40
2019-05-21T04:10:39.838Z,15.40
2019-05-21T04:13:10.040Z,15.40
2019-05-21T04:16:06.607Z,15.50
2019-05-21T04:18:44.828Z,15.50
2019-05-21T04:21:14.906Z,15.50
2019-05-21T04:23:45.103Z,15.50
2019-05-21T04:26:15.194Z,15.60
2019-05-21T04:28:45.394Z,15.60
2019-05-21T04:31:15.528Z,15.60
2019-05-21T04:33:45.721Z,15.50
2019-05-21T04:36:15.912Z,15.50
2019-05-21T04:38:45.999Z,15.50
2019-05-21T04:41:16.145Z,15.50
2019-05-21T04:43:46.429Z,15.50
2019-05-21T04:46:16.603Z,15.50
2019-05-21T04:48:46.751Z,15.60
2019-05-21T04:51:16.808Z,15.50
2019-05-21T04:53:48.076Z,15.50
2019-05-21T04:56:18.257Z,15.50
2019-05-21T04:58:48.355Z,15.50
2019-05-21T05:01:18.670Z,15.50
2019-05-21T05:03:48.730Z,15.50
2019-05-21T05:06:19.018Z,15.50
2019-05-21T05:08:49.283Z,15.50
2019-05-21T05:11:19.495Z,15.50
2019-05-21T05:13:50.139Z,15.60
2019-05-21T05:16:20.307Z,15.60
2019-05-21T05:18:50.558Z,15.70
2019-05-21T05:21:20.750Z,15.70
2019-05-21T05:23:51.025Z,15.70
2019-05-21T05:26:21.226Z,15.80
2019-05-21T05:28:51.402Z,15.90
2019-05-21T05:31:21.635Z,15.90
2019-05-21T05:33:51.765Z,16.00
2019-05-21T05:36:21.929Z,16.10
2019-05-21T05:38:52.284Z,16.30
2019-05-21T05:41:22.547Z,16.50
2019-05-21T05:43:52.924Z,16.70
2019-05-21T05:46:24.109Z,16.90
2019-05-21T05:49:01.774Z,17.10
2019-05-21T05:51:32.173Z,17.10
2019-05-21T05:54:02.302Z,17.20
2019-05-21T05:56:32.513Z,17.20
2019-05-21T05:59:02.701Z,17.20
2019-05-21T06:01:33.971Z,17.10
2019-05-21T06:04:04.189Z,17.10
2019-05-21T06:06:34.332Z,17.00
2019-05-21T06:09:05.741Z,17.10
2019-05-21T06:11:35.936Z,17.20
2019-05-21T06:14:06.736Z,17.20
2019-05-21T06:16:36.962Z,17.30
2019-05-21T06:19:07.203Z,17.40
2019-05-21T06:21:37.462Z,17.30
2019-05-21T06:24:07.906Z,17.30
2019-05-21T06:26:38.301Z,17.40
2019-05-21T06:29:08.477Z,17.40
2019-05-21T06:31:38.661Z,17.50
2019-05-21T06:34:08.818Z,17.60
2019-05-21T06:36:39.111Z,17.60
2019-05-21T06:39:09.395Z,17.70
2019-05-21T06:41:39.610Z,17.80
2019-05-21T06:44:09.786Z,17.70
2019-05-21T06:46:40.930Z,17.70
2019-05-21T06:49:11.172Z,17.90
2019-05-21T06:51:41.524Z,18.00
2019-05-21T06:54:11.627Z,18.10
2019-05-21T06:56:41.675Z,18.10
2019-05-21T06:59:11.895Z,18.30
2019-05-21T07:01:42.123Z,18.50
2019-05-21T07:04:12.156Z,18.50
2019-05-21T07:06:44.743Z,18.60
2019-05-21T07:09:14.168Z,18.80
2019-05-21T07:11:44.254Z,18.80
2019-05-21T07:14:14.494Z,19.00
2019-05-21T07:16:44.766Z,19.10
2019-05-21T07:19:14.889Z,19.10
2019-05-21T07:21:45.086Z,19.10
2019-05-21T07:24:15.130Z,19.10
2019-05-21T07:26:45.415Z,19.00
2019-05-21T07:29:15.645Z,19.30
2019-05-21T07:31:45.890Z,19.40
2019-05-21T07:34:16.085Z,19.50
2019-05-21T07:36:46.246Z,19.60
2019-05-21T07:39:16.371Z,19.70
2019-05-21T07:41:46.581Z,19.80
2019-05-21T07:44:16.703Z,19.90
2019-05-21T07:46:48.484Z,20.10
2019-05-21T07:49:18.642Z,20.20
2019-05-21T07:51:49.311Z,20.50
2019-05-21T07:54:19.381Z,21.00
2019-05-21T07:56:49.727Z,21.20
2019-05-21T07:59:19.910Z,21.40
2019-05-21T08:01:49.962Z,21.40
2019-05-21T08:04:20.186Z,21.30
2019-05-21T08:06:50.294Z,21.30
2019-05-21T08:09:20.403Z,21.80
2019-05-21T08:11:50.442Z,22.00
2019-05-21T08:14:20.688Z,21.60
2019-05-21T08:16:51.014Z,21.10
2019-05-21T08:19:21.859Z,20.70
2019-05-21T08:21:52.327Z,20.90
2019-05-21T08:24:22.704Z,21.30
2019-05-21T08:26:52.974Z,21.50
2019-05-21T08:29:27.025Z,21.50
2019-05-21T08:31:57.312Z,22.00
2019-05-21T08:34:27.456Z,22.00
2019-05-21T08:36:57.953Z,22.10
2019-05-21T08:39:29.356Z,21.90
2019-05-21T08:41:59.749Z,21.70
2019-05-21T08:44:30.081Z,21.50
2019-05-21T08:47:01.137Z,21.30
2019-05-21T08:49:31.437Z,21.40
2019-05-21T08:52:01.745Z,21.40
2019-05-21T08:54:47.123Z,21.10
2019-05-21T08:57:17.526Z,21.30
2019-05-21T08:59:49.294Z,21.50
2019-05-21T09:02:19.539Z,21.60
2019-05-21T09:04:49.860Z,21.90
2019-05-21T09:07:20.030Z,22.20
2019-05-21T09:09:51.740Z,22.30
2019-05-21T09:12:22.154Z,22.10
2019-05-21T09:14:52.269Z,22.00
2019-05-21T09:17:22.426Z,22.00
2019-05-21T09:19:52.587Z,22.40
2019-05-21T09:22:22.881Z,22.50
2019-05-21T09:24:53.029Z,22.40
2019-05-21T09:27:23.266Z,22.20
2019-05-21T09:29:53.544Z,22.00
2019-05-21T09:32:23.618Z,21.90
2019-05-21T09:34:53.816Z,21.60
2019-05-21T09:37:24.067Z,21.60
2019-05-21T09:39:54.386Z,21.50
2019-05-21T09:42:24.663Z,21.30
2019-05-21T09:44:54.871Z,21.20
2019-05-21T09:47:25.974Z,21.00
2019-05-21T09:49:56.103Z,20.90
2019-05-21T09:52:26.260Z,20.90
2019-05-21T09:54:56.417Z,20.80
2019-05-21T09:57:34.193Z,20.70
2019-05-21T10:00:11.454Z,20.60
2019-05-21T10:02:41.831Z,20.50
2019-05-21T10:05:12.587Z,20.40
2019-05-21T10:07:43.064Z,20.30
2019-05-21T10:10:13.231Z,20.10
2019-05-21T10:12:43.470Z,20.10
2019-05-21T10:15:13.639Z,20.00
2019-05-21T10:17:43.814Z,20.00
2019-05-21T10:20:14.403Z,20.10
2019-05-21T10:22:44.668Z,20.10
2019-05-21T10:25:16.113Z,20.30
2019-05-21T10:27:46.445Z,20.60
2019-05-21T10:30:16.757Z,21.00
2019-05-21T10:32:47.127Z,21.50
2019-05-21T10:35:17.413Z,21.70
2019-05-21T10:37:55.065Z,21.80
2019-05-21T10:40:19.832Z,21.70
2019-05-21T10:42:49.934Z,21.00
2019-05-21T10:45:20.290Z,21.10
2019-05-21T10:47:50.459Z,20.80
2019-05-21T10:50:20.751Z,21.00
2019-05-21T10:52:51.122Z,21.00
2019-05-21T10:55:21.385Z,21.00
2019-05-21T10:57:51.752Z,20.90
2019-05-21T11:00:23.295Z,21.20
2019-05-21T11:03:05.058Z,21.20
2019-05-21T11:05:37.477Z,21.10
2019-05-21T11:08:24.986Z,20.80
2019-05-21T11:10:39.911Z,21.20
2019-05-21T11:13:10.275Z,21.80
2019-05-21T11:15:40.461Z,21.90
2019-05-21T11:18:11.820Z,21.80
2019-05-21T11:20:42.513Z,22.20
2019-05-21T11:23:12.721Z,21.90
2019-05-21T11:25:42.893Z,21.60
2019-05-21T11:28:12.998Z,21.40
2019-05-21T11:30:43.225Z,21.10
2019-05-21T11:33:13.332Z,21.10
2019-05-21T11:35:43.587Z,21.30
2019-05-21T11:38:14.048Z,21.50
2019-05-21T11:40:44.244Z,21.60
2019-05-21T11:43:14.521Z,21.70
2019-05-21T11:45:44.751Z,21.90
2019-05-21T11:48:15.181Z,22.20
2019-05-21T11:50:45.360Z,22.50
2019-05-21T11:53:15.517Z,23.10
2019-05-21T11:55:45.680Z,23.30
2019-05-21T11:58:16.014Z,22.60
2019-05-21T12:00:46.323Z,22.50
2019-05-21T12:03:16.412Z,22.30
2019-05-21T12:05:46.670Z,21.80
2019-05-21T12:08:16.965Z,21.90
2019-05-21T12:10:47.234Z,21.70
2019-05-21T12:13:20.486Z,21.60
2019-05-21T12:15:49.387Z,21.70
2019-05-21T12:18:19.506Z,21.70
2019-05-21T12:20:50.551Z,21.40
2019-05-21T12:23:20.691Z,21.10
2019-05-21T12:25:51.895Z,21.20
2019-05-21T12:28:22.180Z,21.20
2019-05-21T12:30:52.453Z,21.30
2019-05-21T12:33:22.583Z,21.50
2019-05-21T12:35:52.829Z,21.70
2019-05-21T12:38:23.014Z,21.70
2019-05-21T12:40:53.156Z,21.70
2019-05-21T12:43:23.209Z,21.60
2019-05-21T12:45:53.318Z,21.50
2019-05-21T12:48:23.542Z,21.50
2019-05-21T12:50:53.759Z,21.50
2019-05-21T12:53:23.872Z,21.50
2019-05-21T12:55:54.027Z,21.50
2019-05-21T12:58:24.314Z,21.70
2019-05-21T13:00:54.725Z,21.90
2019-05-21T13:03:25.006Z,22.50
2019-05-21T13:05:55.410Z,23.40
2019-05-21T13:08:25.566Z,23.80
2019-05-21T13:10:55.669Z,24.10
2019-05-21T13:13:25.857Z,24.50
2019-05-21T13:15:56.074Z,24.70
2019-05-21T13:18:26.366Z,24.50
2019-05-21T13:20:56.521Z,24.60
2019-05-21T13:23:27.609Z,24.70
2019-05-21T13:25:58.004Z,24.80
2019-05-21T13:28:28.207Z,24.70
2019-05-21T13:30:58.471Z,24.60
2019-05-21T13:33:28.523Z,24.00
2019-05-21T13:35:58.663Z,23.90
2019-05-21T13:38:28.834Z,23.80
2019-05-21T13:40:59.984Z,23.70
2019-05-21T13:43:30.207Z,24.10
2019-05-21T13:46:00.327Z,24.40
2019-05-21T13:48:30.467Z,24.50
2019-05-21T13:51:01.877Z,24.80
2019-05-21T13:53:32.069Z,24.90
2019-05-21T13:56:02.540Z,25.10
2019-05-21T13:58:32.813Z,25.00
2019-05-21T14:01:04.221Z,25.10
2019-05-21T14:03:34.958Z,25.20
2019-05-21T14:06:05.277Z,25.20
2019-05-21T14:08:35.679Z,25.10
2019-05-21T14:11:06.425Z,25.10
2019-05-21T14:13:36.720Z,25.50
2019-05-21T14:16:07.085Z,25.20
2019-05-21T14:18:37.262Z,25.20
2019-05-21T14:21:07.644Z,24.90
2019-05-21T14:23:38.121Z,24.70
2019-05-21T14:26:08.505Z,24.40
2019-05-21T14:28:38.810Z,24.00
2019-05-21T14:31:08.982Z,23.60
2019-05-21T14:33:39.143Z,23.40
2019-05-21T14:36:09.396Z,23.00
2019-05-21T14:38:39.503Z,22.60
2019-05-21T14:41:09.702Z,22.30
2019-05-21T14:43:39.790Z,22.20
2019-05-21T14:46:09.951Z,22.10
2019-05-21T14:48:40.080Z,22.00
2019-05-21T14:51:13.453Z,22.10
2019-05-21T14:53:42.400Z,22.30
2019-05-21T14:56:12.663Z,22.40
2019-05-21T14:58:43.057Z,22.70
2019-05-21T15:01:13.464Z,22.80
2019-05-21T15:03:43.754Z,23.20
2019-05-21T15:06:14.210Z,23.50
2019-05-21T15:08:44.610Z,23.20
2019-05-21T15:11:14.935Z,23.10
2019-05-21T15:13:45.028Z,22.90
2019-05-21T15:16:15.499Z,22.70
2019-05-21T15:18:46.929Z,22.60
2019-05-21T15:21:22.411Z,22.70
2019-05-21T15:23:52.873Z,22.60
2019-05-21T15:26:23.555Z,22.70
2019-05-21T15:28:54.007Z,22.80
2019-05-21T15:31:24.250Z,23.00
2019-05-21T15:33:54.446Z,23.20
2019-05-21T15:36:24.555Z,23.30
2019-05-21T15:38:54.768Z,23.40
2019-05-21T15:41:25.131Z,23.20
2019-05-21T15:43:55.261Z,23.00
2019-05-21T15:46:25.465Z,22.70
2019-05-21T15:48:55.615Z,22.50
2019-05-21T15:51:25.858Z,22.30
2019-05-21T15:53:56.078Z,22.10
2019-05-21T15:56:26.420Z,22.00
2019-05-21T15:58:56.996Z,21.90
2019-05-21T16:01:27.302Z,21.80
2019-05-21T16:03:57.455Z,21.90
2019-05-21T16:06:28.962Z,21.90
2019-05-21T16:08:59.134Z,22.00
2019-05-21T16:11:29.509Z,21.90
2019-05-21T16:13:59.771Z,21.90
2019-05-21T16:16:30.066Z,22.00
2019-05-21T16:19:00.332Z,22.10
2019-05-21T16:21:30.687Z,22.30
2019-05-21T16:24:01.801Z,22.30
2019-05-21T16:26:31.976Z,22.40
2019-05-21T16:29:02.243Z,22.40
2019-05-21T16:31:32.397Z,22.50
2019-05-21T16:34:02.674Z,22.40
2019-05-21T16:36:32.959Z,22.20
2019-05-21T16:39:04.939Z,22.10
2019-05-21T16:41:44.214Z,22.00
2019-05-21T16:44:06.962Z,21.90
2019-05-21T16:46:37.186Z,21.80
2019-05-21T16:49:07.539Z,21.80
2019-05-21T16:51:37.897Z,21.70
2019-05-21T16:54:08.084Z,21.60
2019-05-21T16:56:38.205Z,21.50
2019-05-21T16:59:08.390Z,21.60
2019-05-21T17:01:38.563Z,21.60
2019-05-21T17:04:08.821Z,21.60
2019-05-21T17:06:39.035Z,21.50
2019-05-21T17:09:12.813Z,21.40
2019-05-21T17:11:43.224Z,21.30
2019-05-21T17:14:13.445Z,21.10
2019-05-21T17:16:43.630Z,20.90
2019-05-21T17:19:13.822Z,20.80
2019-05-21T17:21:44.074Z,20.60
2019-05-21T17:24:15.176Z,20.50
2019-05-21T17:26:45.471Z,20.30
2019-05-21T17:29:15.858Z,20.10
2019-05-21T17:31:46.234Z,20.10
2019-05-21T17:34:17.481Z,19.90
2019-05-21T17:36:48.675Z,19.80
2019-05-21T17:39:18.867Z,19.80
2019-05-21T17:41:49.086Z,19.70
2019-05-21T17:44:19.284Z,19.50
2019-05-21T17:46:49.549Z,19.50
2019-05-21T17:49:19.818Z,19.40
2019-05-21T17:51:51.305Z,19.40
2019-05-21T17:54:21.594Z,19.30
2019-05-21T17:56:51.790Z,19.20
2019-05-21T17:59:22.290Z,19.10
2019-05-21T18:01:53.275Z,19.00
2019-05-21T18:04:23.706Z,19.00
2019-05-21T18:06:53.928Z,19.00
2019-05-21T18:09:24.223Z,18.90
2019-05-21T18:11:54.359Z,18.80
2019-05-21T18:14:25.202Z,18.80
2019-05-21T18:16:55.392Z,18.70
2019-05-21T18:19:25.646Z,18.70
2019-05-21T18:21:55.879Z,18.70
2019-05-21T18:24:26.907Z,18.70
2019-05-21T18:26:57.169Z,18.60
2019-05-21T18:29:27.510Z,18.50
2019-05-21T18:31:57.878Z,18.50
2019-05-21T18:34:28.098Z,18.40
2019-05-21T18:36:58.291Z,18.30
2019-05-21T18:39:28.832Z,18.20
2019-05-21T18:41:59.076Z,18.10
2019-05-21T18:44:29.489Z,17.90
2019-05-21T18:46:59.762Z,17.90
2019-05-21T18:49:29.975Z,17.90
2019-05-21T18:52:00.072Z,17.90
2019-05-21T18:54:30.415Z,17.90
2019-05-21T18:57:00.693Z,17.70
2019-05-21T18:59:31.002Z,17.70
2019-05-21T19:02:01.317Z,17.70
2019-05-21T19:04:31.667Z,17.70
2019-05-21T19:07:01.829Z,17.70
2019-05-21T19:09:32.249Z,17.60
2019-05-21T19:12:03.009Z,17.50
2019-05-21T19:14:33.293Z,17.50
2019-05-21T19:17:03.541Z,17.50
2019-05-21T19:19:33.794Z,17.50
2019-05-21T19:22:04.109Z,17.40
2019-05-21T19:24:35.317Z,17.30
2019-05-21T19:27:05.736Z,17.30
2019-05-21T19:29:36.024Z,17.30
2019-05-21T19:32:07.384Z,17.10
2019-05-21T19:34:37.597Z,17.00
2019-05-21T19:37:07.975Z,17.00
2019-05-21T19:39:39.685Z,17.00
2019-05-21T19:42:10.311Z,16.90
2019-05-21T19:44:40.569Z,16.90
2019-05-21T19:47:11.949Z,16.90
2019-05-21T19:49:42.316Z,16.80
2019-05-21T19:52:13.692Z,16.80
2019-05-21T19:54:45.011Z,16.80
2019-05-21T19:57:15.961Z,16.80
2019-05-21T19:59:47.430Z,16.60
2019-05-21T20:02:18.811Z,16.60
2019-05-21T20:04:49.652Z,16.50
2019-05-21T20:07:21.484Z,16.50
2019-05-21T20:09:52.116Z,16.30
2019-05-21T20:12:24.021Z,16.30
2019-05-21T20:14:54.479Z,16.20
2019-05-21T20:17:25.719Z,16.20
2019-05-21T20:19:56.575Z,16.10
2019-05-21T20:22:27.461Z,16.10
2019-05-21T20:24:58.696Z,16.00
2019-05-21T20:27:30.271Z,15.80
2019-05-21T20:30:12.362Z,15.80
2019-05-21T20:32:36.079Z,15.80
2019-05-21T20:35:08.277Z,15.70
2019-05-21T20:37:40.411Z,15.60
2019-05-21T20:40:12.891Z,15.60
2019-05-21T20:42:44.743Z,15.60
2019-05-21T20:45:16.754Z,15.50
2019-05-21T20:47:51.710Z,15.40
2019-05-21T20:50:23.347Z,15.30
2019-05-21T20:52:55.581Z,15.30
2019-05-21T20:55:26.111Z,15.20
2019-05-21T20:57:57.013Z,15.20
2019-05-21T21:00:40.775Z,15.10
2019-05-21T21:03:13.608Z,15.00
2019-05-21T21:05:47.671Z,15.00
2019-05-21T21:08:19.608Z,14.90
2019-05-21T21:10:49.995Z,14.90
2019-05-21T21:13:20.327Z,14.80
2019-05-21T21:15:50.568Z,14.80
2019-05-21T21:18:21.503Z,14.70
2019-05-21T21:20:51.792Z,14.60
2019-05-21T21:23:25.130Z,14.50
2019-05-21T21:25:55.704Z,14.60
2019-05-21T21:28:25.908Z,14.50
2019-05-21T21:30:57.522Z,14.50
2019-05-21T21:33:29.558Z,14.50
2019-05-21T21:35:59.805Z,14.50
2019-05-21T21:38:31.672Z,14.50
2019-05-21T21:41:01.778Z,14.50
2019-05-21T21:43:31.840Z,14.40
2019-05-21T21:46:02.312Z,14.30
2019-05-21T21:48:32.747Z,14.20
2019-05-21T21:51:04.703Z,14.20
2019-05-21T21:53:36.067Z,14.20
2019-05-21T21:56:06.490Z,14.10
2019-05-21T21:58:36.929Z,14.00
2019-05-21T22:01:43.390Z,14.00
2019-05-21T22:04:16.410Z,14.00
2019-05-21T22:06:48.494Z,13.90
2019-05-21T22:09:29.194Z,13.90
2019-05-21T22:12:00.069Z,13.90
2019-05-21T22:14:31.118Z,13.80
2019-05-21T22:17:02.104Z,13.80
2019-05-21T22:19:32.629Z,13.70
2019-05-21T22:22:03.041Z,13.70
2019-05-21T22:24:33.539Z,13.70
2019-05-21T22:27:03.827Z,13.60
2019-05-21T22:29:34.079Z,13.60
2019-05-21T22:32:04.530Z,13.60
2019-05-21T22:34:34.914Z,13.60
2019-05-21T22:37:07.933Z,13.60
2019-05-21T22:39:40.778Z,13.50
2019-05-21T22:42:11.038Z,13.50
2019-05-21T22:44:41.570Z,13.40
2019-05-21T22:47:12.241Z,13.30
2019-05-21T22:49:42.429Z,13.30
2019-05-21T22:52:13.149Z,13.20
2019-05-21T22:54:43.745Z,13.10
2019-05-21T22:57:14.031Z,13.10
2019-05-21T22:59:46.162Z,13.10
2019-05-21T23:02:21.442Z,13.00
2019-05-21T23:04:51.844Z,13.00
2019-05-21T23:07:24.010Z,13.00
2019-05-21T23:09:55.314Z,12.90
2019-05-21T23:12:25.656Z,12.90
2019-05-21T23:14:55.909Z,12.90
2019-05-21T23:17:27.621Z,12.90
2019-05-21T23:20:13.429Z,12.90
2019-05-21T23:22:47.313Z,12.80
2019-05-21T23:25:19.467Z,12.80
2019-05-21T23:27:49.847Z,12.70
2019-05-21T23:30:20.336Z,12.70
2019-05-21T23:32:51.402Z,12.70
2019-05-21T23:35:21.958Z,12.70
2019-05-21T23:37:53.646Z,12.70
2019-05-21T23:40:24.407Z,12.70
2019-05-21T23:42:55.097Z,12.70
2019-05-21T23:45:25.437Z,12.70
2019-05-21T23:47:55.520Z,12.60
2019-05-21T23:50:26.137Z,12.70
2019-05-21T23:52:56.410Z,12.70
2019-05-21T23:55:26.638Z,12.70
2019-05-21T23:57:56.869Z,12.60
